»·PEaware :: NGF6972 KSAN-KSBA

NGF6972 :: KSAN-KSBA

FLIGHT INFORMATION

Flight Status: Arrived
Operator: Unknown
More flights by this operator :: More flights under this callsign
Pilot: Justin A. (23118)
Aircraft: EMBRAER PHENOM 300
(E55P)
More flights by this aircraft type
Origin: KSAN San Diego Intl-Lindbergh
United States
Destination: KSBA Santa Barbara Mun
United States
More flights between these airports :: More routes between these airports
Route: +CWARD2 PADRZ AVOLS V208 VTU VTU282 KWANG
File this flight plan on PilotEdge
Remarks:
Altitude:
(Current/Filed)
16,000ft
Speed:
(Current/Filed)
350kts
Departed: 06-Feb-19 04:25 PM
Arrived: 06-Feb-19 05:07 PM
Distance/Time
Traveled:
167nm/0:42
Distance/Time
To Go:
Arrived

Flight Plot

Page will automatically refresh every two minutes.

Flight plan parsing failed; only flown route is shown


Map Options




Map Legend


Flown Route
Filed Route
Departure Airport
Arrival Airport
Navaid (VOR, NDB)
Fix

Horizontal Profiles

Position Reports

Time Latitude Longitude Heading Altitude Ground
Speed
06-Feb-19 15:39 32.734023 -117.179761 104 18ft 0kts
06-Feb-19 15:40 32.734023 -117.179761 104 18ft 0kts
06-Feb-19 15:41 32.734023 -117.179761 104 18ft 0kts
06-Feb-19 15:42 32.734023 -117.179761 104 18ft 0kts
06-Feb-19 15:43 32.734023 -117.179761 104 18ft 0kts
06-Feb-19 15:44 32.734023 -117.179761 104 18ft 0kts
06-Feb-19 15:45 32.734023 -117.179761 104 18ft 0kts
06-Feb-19 15:46 32.734023 -117.179761 104 18ft 0kts
06-Feb-19 15:47 32.734023 -117.179761 104 18ft 0kts
06-Feb-19 15:47 32.734023 -117.179761 104 18ft 0kts
06-Feb-19 15:49 32.734023 -117.179761 104 18ft 0kts
06-Feb-19 15:50 32.734023 -117.179761 104 18ft 0kts
06-Feb-19 15:50 32.734023 -117.179761 104 18ft 0kts
06-Feb-19 15:51 32.734023 -117.179761 104 18ft 0kts
06-Feb-19 15:52 32.734023 -117.179761 104 18ft 0kts
06-Feb-19 15:53 32.734023 -117.179761 104 18ft 0kts
06-Feb-19 15:54 32.734023 -117.179760 104 18ft 0kts
06-Feb-19 15:55 32.734023 -117.179758 104 18ft 0kts
06-Feb-19 15:56 32.734022 -117.179755 104 18ft 0kts
06-Feb-19 15:57 32.734021 -117.179753 104 18ft 0kts
06-Feb-19 15:58 32.734021 -117.179750 104 18ft 0kts
06-Feb-19 15:59 32.734020 -117.179748 104 18ft 0kts
06-Feb-19 16:00 32.734020 -117.179745 104 18ft 0kts
06-Feb-19 16:01 32.734019 -117.179743 104 18ft 0kts
06-Feb-19 16:02 32.734019 -117.179740 104 18ft 0kts
06-Feb-19 16:03 32.734018 -117.179738 104 18ft 0kts
06-Feb-19 16:04 32.734017 -117.179735 104 18ft 0kts
06-Feb-19 16:05 32.734017 -117.179732 104 18ft 0kts
06-Feb-19 16:06 32.734016 -117.179730 104 18ft 0kts
06-Feb-19 16:07 32.734016 -117.179727 104 18ft 0kts
06-Feb-19 16:08 32.733944 -117.179549 138 18ft 2kts
06-Feb-19 16:09 32.733257 -117.179589 194 18ft 4kts
06-Feb-19 16:10 32.732910 -117.179704 196 18ft 0kts
06-Feb-19 16:11 32.732908 -117.179705 196 18ft 0kts
06-Feb-19 16:12 32.732202 -117.179288 104 18ft 10kts
06-Feb-19 16:13 32.731416 -117.176097 106 18ft 0kts
06-Feb-19 16:14 32.731416 -117.176096 106 18ft 0kts
06-Feb-19 16:15 32.731347 -117.175904 118 18ft 0kts
06-Feb-19 16:16 32.730230 -117.175428 243 18ft 11kts
06-Feb-19 16:17 32.730172 -117.175683 286 18ft 0kts
06-Feb-19 16:18 32.730341 -117.176277 268 18ft 4kts
06-Feb-19 16:19 32.730391 -117.176604 284 18ft 0kts
06-Feb-19 16:20 32.731013 -117.176763 15 18ft 4kts
06-Feb-19 16:21 32.731437 -117.176537 51 18ft 0kts
06-Feb-19 16:22 32.731438 -117.176535 51 18ft 0kts
06-Feb-19 16:23 32.730175 -117.175599 265 18ft 6kts
06-Feb-19 16:24 32.731160 -117.179891 286 18ft 93kts
06-Feb-19 16:25 32.749085 -117.233841 303 2374ft 242kts
06-Feb-19 16:26 32.788154 -117.298358 303 1826ft 195kts
06-Feb-19 16:27 32.826768 -117.360359 306 2465ft 288kts
06-Feb-19 16:28 32.872022 -117.430596 306 4538ft 231kts
06-Feb-19 16:29 32.911989 -117.492802 306 7067ft 272kts
06-Feb-19 16:30 32.958587 -117.565355 306 9552ft 261kts
06-Feb-19 16:31 33.008548 -117.643062 307 11554ft 262kts
06-Feb-19 16:32 33.061787 -117.721687 312 10206ft 341kts
06-Feb-19 16:33 33.124847 -117.791521 318 9995ft 322kts
06-Feb-19 16:34 33.190021 -117.867021 305 9991ft 369kts
06-Feb-19 16:35 33.239402 -117.969216 296 9993ft 362kts
06-Feb-19 16:36 33.282510 -118.073452 295 9994ft 413kts
06-Feb-19 16:37 33.329492 -118.187649 295 10030ft 356kts
06-Feb-19 16:38 33.359114 -118.298584 281 10036ft 348kts
06-Feb-19 16:39 33.380726 -118.409409 296 10046ft 342kts
06-Feb-19 16:40 33.428376 -118.493201 307 10047ft 352kts
06-Feb-19 16:41 33.494922 -118.590460 309 10051ft 384kts
06-Feb-19 16:42 33.561449 -118.685516 309 10044ft 365kts
06-Feb-19 16:43 33.620250 -118.769692 309 10047ft 376kts
06-Feb-19 16:44 33.688193 -118.867271 309 10045ft 381kts
06-Feb-19 16:45 33.748108 -118.953560 309 10044ft 368kts
06-Feb-19 16:46 33.830700 -119.017643 346 10128ft 366kts
06-Feb-19 16:47 33.901908 -119.029338 353 10128ft 367kts
06-Feb-19 16:48 34.001449 -119.038310 354 10128ft 367kts
06-Feb-19 16:49 34.101526 -119.055616 327 10128ft 363kts
06-Feb-19 16:50 34.161406 -119.151423 296 10128ft 361kts
06-Feb-19 16:51 34.205306 -119.260751 295 10128ft 360kts
06-Feb-19 16:52 34.248209 -119.366821 295 10124ft 327kts
06-Feb-19 16:53 34.283239 -119.451615 296 10123ft 249kts
06-Feb-19 16:54 34.311318 -119.521512 293 10125ft 218kts
06-Feb-19 16:55 34.336616 -119.590803 293 9073ft 240kts
06-Feb-19 16:56 34.359331 -119.667043 259 8187ft 234kts
06-Feb-19 16:57 34.303282 -119.703359 188 6941ft 258kts
06-Feb-19 16:58 34.263213 -119.639739 95 5343ft 269kts
06-Feb-19 16:59 34.295797 -119.588692 1 4491ft 251kts
06-Feb-19 17:00 34.360064 -119.614918 315 2705ft 252kts
06-Feb-19 17:01 34.402109 -119.670307 303 2129ft 193kts
06-Feb-19 17:02 34.423588 -119.720240 273 2137ft 151kts
06-Feb-19 17:03 34.426933 -119.762054 275 1345ft 135kts
06-Feb-19 17:04 34.428553 -119.804803 269 435ft 108kts
06-Feb-19 17:05 34.427762 -119.840148 269 13ft 84kts
06-Feb-19 17:06 34.426715 -119.846251 138 13ft 0kts
06-Feb-19 17:07 34.426579 -119.845022 88 13ft 14kts
06-Feb-19 17:08 34.426591 -119.841467 134 13ft 7kts
06-Feb-19 17:09 34.423231 -119.839431 123 13ft 12kts
06-Feb-19 17:10 34.422506 -119.836506 158 13ft 4kts
06-Feb-19 17:11 34.422514 -119.835850 344 13ft 0kts
06-Feb-19 17:12 34.422516 -119.835850 344 13ft 0kts
06-Feb-19 17:13 34.422516 -119.835850 344 13ft 0kts
06-Feb-19 17:14 34.422516 -119.835850 344 13ft 0kts
06-Feb-19 17:15 34.422516 -119.835850 344 13ft 0kts
06-Feb-19 17:16 34.422516 -119.835850 344 13ft 0kts
06-Feb-19 17:17 34.422516 -119.835850 344 13ft 0kts
06-Feb-19 17:18 34.422516 -119.835850 344 13ft 0kts
06-Feb-19 17:19 34.422516 -119.835850 344 13ft 0kts
06-Feb-19 17:20 34.422516 -119.835850 344 13ft 0kts

Navigation Log

Ident Type
Flight plan parsing failed, navigation log unavailable